Aviation Digital Data Service (ADDS)

Output produced by METARs form (2024 UTC 20 August 2019)
found at http://www.aviationweather.gov/metar/data/
 
METAR text: WAAA 202000Z AUTO 19003KT 150V220 9999 NCD 22/20 Q1010
Conditions at: WAAA (HASANUDDIN/UJUNG, ID) observed 2000 UTC 20 August 2019
Temperature: 22.0°C (72°F)
Dewpoint: 20.0°C (68°F) [RH = 88%]
Pressure (altimeter): 29.82 inches Hg (1010.0 mb)
Winds: from the S (190 degrees) at 3 MPH (3 knots; 1.5 m/s)
Visibility: 6 or more miles (10+ km)
Ceiling: at least 12,000 feet AGL
Clouds: sky clear below 12,000 feet AGL
Weather: no significant weather observed at this time

METAR text: WAAA 201900Z AUTO 19003KT 110V220 9999 FEW300 21/20 Q1010
Conditions at: WAAA (HASANUDDIN/UJUNG, ID) observed 1900 UTC 20 August 2019
Temperature: 21.0°C (70°F)
Dewpoint: 20.0°C (68°F) [RH = 94%]
Pressure (altimeter): 29.82 inches Hg (1010.0 mb)
Winds: from the S (190 degrees) at 3 MPH (3 knots; 1.5 m/s)
Visibility: 6 or more miles (10+ km)
Ceiling: at least 12,000 feet AGL
Clouds: few clouds at 30000 feet AGL
Weather: no significant weather observed at this time

METAR text: WAAA 201830Z 06005KT 360V100 8000 FEW020 24/20 Q1010 NOSIG
Conditions at: WAAA (HASANUDDIN/UJUNG, ID) observed 1830 UTC 20 August 2019
Temperature: 24.0°C (75°F)
Dewpoint: 20.0°C (68°F) [RH = 78%]
Pressure (altimeter): 29.82 inches Hg (1010.0 mb)
Winds: from the ENE (60 degrees) at 6 MPH (5 knots; 2.6 m/s)
Visibility: 5 miles ( 8 km)
Ceiling: at least 12,000 feet AGL
Clouds: few clouds at 2000 feet AGL
Weather: no significant weather observed at this time

METAR text: WAAA 201800Z AUTO 02001KT 9999 NCD 23/20 Q1010
Conditions at: WAAA (HASANUDDIN/UJUNG, ID) observed 1800 UTC 20 August 2019
Temperature: 23.0°C (73°F)
Dewpoint: 20.0°C (68°F) [RH = 83%]
Pressure (altimeter): 29.82 inches Hg (1010.0 mb)
Winds: from the NNE (20 degrees) at 1 MPH (1 knots; 0.5 m/s)
Visibility: 6 or more miles (10+ km)
Ceiling: at least 12,000 feet AGL
Clouds: sky clear below 12,000 feet AGL
Weather: no significant weather observed at this time

METAR text: WAAA 201730Z AUTO VRB02KT 9999 NCD 23/20 Q1010
Conditions at: WAAA (HASANUDDIN/UJUNG, ID) observed 1730 UTC 20 August 2019
Temperature: 23.0°C (73°F)
Dewpoint: 20.0°C (68°F) [RH = 83%]
Pressure (altimeter): 29.82 inches Hg (1010.0 mb)
Winds: variable direction winds at 2 MPH (2 knots; 1.0 m/s)
Visibility: 6 or more miles (10+ km)
Ceiling: at least 12,000 feet AGL
Clouds: sky clear below 12,000 feet AGL
Weather: no significant weather observed at this time

METAR text: WAAA 201700Z AUTO 24003KT 9999 FEW055 FEW070 23/20 Q1011
Conditions at: WAAA (HASANUDDIN/UJUNG, ID) observed 1700 UTC 20 August 2019
Temperature: 23.0°C (73°F)
Dewpoint: 20.0°C (68°F) [RH = 83%]
Pressure (altimeter): 29.85 inches Hg (1011.0 mb)
Winds: from the WSW (240 degrees) at 3 MPH (3 knots; 1.5 m/s)
Visibility: 6 or more miles (10+ km)
Ceiling: at least 12,000 feet AGL
Clouds: few clouds at 5500 feet AGL
few clouds at 7000 feet AGL
Weather: no significant weather observed at this time

METAR text: WAAA 201630Z 08003KT 360V130 8000 FEW020 26/19 Q1011 NOSIG
Conditions at: WAAA (HASANUDDIN/UJUNG, ID) observed 1630 UTC 20 August 2019
Temperature: 26.0°C (79°F)
Dewpoint: 19.0°C (66°F) [RH = 65%]
Pressure (altimeter): 29.85 inches Hg (1011.0 mb)
Winds: from the E (80 degrees) at 3 MPH (3 knots; 1.5 m/s)
Visibility: 5 miles ( 8 km)
Ceiling: at least 12,000 feet AGL
Clouds: few clouds at 2000 feet AGL
Weather: no significant weather observed at this time

METAR text: WAAA 201600Z VRB02KT 8000 FEW020 26/19 Q1011 NOSIG
Conditions at: WAAA (HASANUDDIN/UJUNG, ID) observed 1600 UTC 20 August 2019
Temperature: 26.0°C (79°F)
Dewpoint: 19.0°C (66°F) [RH = 65%]
Pressure (altimeter): 29.85 inches Hg (1011.0 mb)
Winds: variable direction winds at 2 MPH (2 knots; 1.0 m/s)
Visibility: 5 miles ( 8 km)
Ceiling: at least 12,000 feet AGL
Clouds: few clouds at 2000 feet AGL
Weather: no significant weather observed at this time

METAR text: WAAA 201530Z VRB02KT 8000 FEW020 25/19 Q1011 NOSIG
Conditions at: WAAA (HASANUDDIN/UJUNG, ID) observed 1530 UTC 20 August 2019
Temperature: 25.0°C (77°F)
Dewpoint: 19.0°C (66°F) [RH = 69%]
Pressure (altimeter): 29.85 inches Hg (1011.0 mb)
Winds: variable direction winds at 2 MPH (2 knots; 1.0 m/s)
Visibility: 5 miles ( 8 km)
Ceiling: at least 12,000 feet AGL
Clouds: few clouds at 2000 feet AGL
Weather: no significant weather observed at this time

METAR text: WAAA 201500Z 08005KT 8000 FEW020 26/19 Q1012 NOSIG
Conditions at: WAAA (HASANUDDIN/UJUNG, ID) observed 1500 UTC 20 August 2019
Temperature: 26.0°C (79°F)
Dewpoint: 19.0°C (66°F) [RH = 65%]
Pressure (altimeter): 29.88 inches Hg (1012.0 mb)
Winds: from the E (80 degrees) at 6 MPH (5 knots; 2.6 m/s)
Visibility: 5 miles ( 8 km)
Ceiling: at least 12,000 feet AGL
Clouds: few clouds at 2000 feet AGL
Weather: no significant weather observed at this time

METAR text: WAAA 201430Z 08005KT 8000 FEW020 26/19 Q1012 NOSIG
Conditions at: WAAA (HASANUDDIN/UJUNG, ID) observed 1430 UTC 20 August 2019
Temperature: 26.0°C (79°F)
Dewpoint: 19.0°C (66°F) [RH = 65%]
Pressure (altimeter): 29.88 inches Hg (1012.0 mb)
Winds: from the E (80 degrees) at 6 MPH (5 knots; 2.6 m/s)
Visibility: 5 miles ( 8 km)
Ceiling: at least 12,000 feet AGL
Clouds: few clouds at 2000 feet AGL
Weather: no significant weather observed at this time

METAR text: WAAA 201400Z 08004KT 030V100 8000 FEW020 26/19 Q1012 NOSIG
Conditions at: WAAA (HASANUDDIN/UJUNG, ID) observed 1400 UTC 20 August 2019
Temperature: 26.0°C (79°F)
Dewpoint: 19.0°C (66°F) [RH = 65%]
Pressure (altimeter): 29.88 inches Hg (1012.0 mb)
Winds: from the E (80 degrees) at 5 MPH (4 knots; 2.1 m/s)
Visibility: 5 miles ( 8 km)
Ceiling: at least 12,000 feet AGL
Clouds: few clouds at 2000 feet AGL
Weather: no significant weather observed at this time

METAR text: WAAA 201330Z 08005KT 8000 FEW020 27/20 Q1012 NOSIG
Conditions at: WAAA (HASANUDDIN/UJUNG, ID) observed 1330 UTC 20 August 2019
Temperature: 27.0°C (81°F)
Dewpoint: 20.0°C (68°F) [RH = 66%]
Pressure (altimeter): 29.88 inches Hg (1012.0 mb)
Winds: from the E (80 degrees) at 6 MPH (5 knots; 2.6 m/s)
Visibility: 5 miles ( 8 km)
Ceiling: at least 12,000 feet AGL
Clouds: few clouds at 2000 feet AGL
Weather: no significant weather observed at this time

METAR text: WAAA 201300Z 08006KT 050V120 8000 FEW020 27/20 Q1011 NOSIG
Conditions at: WAAA (HASANUDDIN/UJUNG, ID) observed 1300 UTC 20 August 2019
Temperature: 27.0°C (81°F)
Dewpoint: 20.0°C (68°F) [RH = 66%]
Pressure (altimeter): 29.85 inches Hg (1011.0 mb)
Winds: from the E (80 degrees) at 7 MPH (6 knots; 3.1 m/s)
Visibility: 5 miles ( 8 km)
Ceiling: at least 12,000 feet AGL
Clouds: few clouds at 2000 feet AGL
Weather: no significant weather observed at this time

METAR text: WAAA 201230Z 08004KT 8000 FEW020 27/21 Q1011 NOSIG
Conditions at: WAAA (HASANUDDIN/UJUNG, ID) observed 1230 UTC 20 August 2019
Temperature: 27.0°C (81°F)
Dewpoint: 21.0°C (70°F) [RH = 70%]
Pressure (altimeter): 29.85 inches Hg (1011.0 mb)
Winds: from the E (80 degrees) at 5 MPH (4 knots; 2.1 m/s)
Visibility: 5 miles ( 8 km)
Ceiling: at least 12,000 feet AGL
Clouds: few clouds at 2000 feet AGL
Weather: no significant weather observed at this time

METAR text: WAAA 201200Z 05005KT 8000 FEW020 25/21 Q1011 NOSIG
Conditions at: WAAA (HASANUDDIN/UJUNG, ID) observed 1200 UTC 20 August 2019
Temperature: 25.0°C (77°F)
Dewpoint: 21.0°C (70°F) [RH = 79%]
Pressure (altimeter): 29.85 inches Hg (1011.0 mb)
Winds: from the NE (50 degrees) at 6 MPH (5 knots; 2.6 m/s)
Visibility: 5 miles ( 8 km)
Ceiling: at least 12,000 feet AGL
Clouds: few clouds at 2000 feet AGL
Weather: no significant weather observed at this time

METAR text: WAAA 201130Z 07007KT 030V140 8000 FEW020 28/19 Q1011 NOSIG
Conditions at: WAAA (HASANUDDIN/UJUNG, ID) observed 1130 UTC 20 August 2019
Temperature: 28.0°C (82°F)
Dewpoint: 19.0°C (66°F) [RH = 58%]
Pressure (altimeter): 29.85 inches Hg (1011.0 mb)
Winds: from the ENE (70 degrees) at 8 MPH (7 knots; 3.6 m/s)
Visibility: 5 miles ( 8 km)
Ceiling: at least 12,000 feet AGL
Clouds: few clouds at 2000 feet AGL
Weather: no significant weather observed at this time

METAR text: WAAA 201100Z 06005KT 8000 FEW019 28/19 Q1010 NOSIG
Conditions at: WAAA (HASANUDDIN/UJUNG, ID) observed 1100 UTC 20 August 2019
Temperature: 28.0°C (82°F)
Dewpoint: 19.0°C (66°F) [RH = 58%]
Pressure (altimeter): 29.82 inches Hg (1010.0 mb)
Winds: from the ENE (60 degrees) at 6 MPH (5 knots; 2.6 m/s)
Visibility: 5 miles ( 8 km)
Ceiling: at least 12,000 feet AGL
Clouds: few clouds at 1900 feet AGL
Weather: no significant weather observed at this time

METAR text: WAAA 201030Z 09009KT 060V120 8000 FEW019 30/17 Q1010 NOSIG
Conditions at: WAAA (HASANUDDIN/UJUNG, ID) observed 1030 UTC 20 August 2019
Temperature: 30.0°C (86°F)
Dewpoint: 17.0°C (63°F) [RH = 46%]
Pressure (altimeter): 29.82 inches Hg (1010.0 mb)
Winds: from the E (90 degrees) at 10 MPH (9 knots; 4.6 m/s)
Visibility: 5 miles ( 8 km)
Ceiling: at least 12,000 feet AGL
Clouds: few clouds at 1900 feet AGL
Weather: no significant weather observed at this time

METAR text: WAAA 201000Z 08006KT 9999 FEW019 30/18 Q1009 NOSIG
Conditions at: WAAA (HASANUDDIN/UJUNG, ID) observed 1000 UTC 20 August 2019
Temperature: 30.0°C (86°F)
Dewpoint: 18.0°C (64°F) [RH = 49%]
Pressure (altimeter): 29.79 inches Hg (1009.0 mb)
Winds: from the E (80 degrees) at 7 MPH (6 knots; 3.1 m/s)
Visibility: 6 or more miles (10+ km)
Ceiling: at least 12,000 feet AGL
Clouds: few clouds at 1900 feet AGL
Weather: no significant weather observed at this time

METAR text: WAAA 200930Z 10005KT 070V130 9999 FEW019 31/18 Q1009 NOSIG
Conditions at: WAAA (HASANUDDIN/UJUNG, ID) observed 0930 UTC 20 August 2019
Temperature: 31.0°C (88°F)
Dewpoint: 18.0°C (64°F) [RH = 46%]
Pressure (altimeter): 29.79 inches Hg (1009.0 mb)
Winds: from the E (100 degrees) at 6 MPH (5 knots; 2.6 m/s)
Visibility: 6 or more miles (10+ km)
Ceiling: at least 12,000 feet AGL
Clouds: few clouds at 1900 feet AGL
Weather: no significant weather observed at this time

METAR text: WAAA 200900Z 11009KT 9999 SCT019 31/18 Q1009 NOSIG
Conditions at: WAAA (HASANUDDIN/UJUNG, ID) observed 0900 UTC 20 August 2019
Temperature: 31.0°C (88°F)
Dewpoint: 18.0°C (64°F) [RH = 46%]
Pressure (altimeter): 29.79 inches Hg (1009.0 mb)
Winds: from the ESE (110 degrees) at 10 MPH (9 knots; 4.6 m/s)
Visibility: 6 or more miles (10+ km)
Ceiling: at least 12,000 feet AGL
Clouds: scattered clouds at 1900 feet AGL
Weather: no significant weather observed at this time

METAR text: WAAA 200830Z 07009KT 050V110 9999 SCT019 31/18 Q1009 NOSIG
Conditions at: WAAA (HASANUDDIN/UJUNG, ID) observed 0830 UTC 20 August 2019
Temperature: 31.0°C (88°F)
Dewpoint: 18.0°C (64°F) [RH = 46%]
Pressure (altimeter): 29.79 inches Hg (1009.0 mb)
Winds: from the ENE (70 degrees) at 10 MPH (9 knots; 4.6 m/s)
Visibility: 6 or more miles (10+ km)
Ceiling: at least 12,000 feet AGL
Clouds: scattered clouds at 1900 feet AGL
Weather: no significant weather observed at this time

METAR text: WAAA 200800Z 09009KT 050V110 9999 SCT019 31/19 Q1009 NOSIG
Conditions at: WAAA (HASANUDDIN/UJUNG, ID) observed 0800 UTC 20 August 2019
Temperature: 31.0°C (88°F)
Dewpoint: 19.0°C (66°F) [RH = 49%]
Pressure (altimeter): 29.79 inches Hg (1009.0 mb)
Winds: from the E (90 degrees) at 10 MPH (9 knots; 4.6 m/s)
Visibility: 6 or more miles (10+ km)
Ceiling: at least 12,000 feet AGL
Clouds: scattered clouds at 1900 feet AGL
Weather: no significant weather observed at this time

METAR text: WAAA 200730Z 08010KT 050V110 9999 SCT019 32/19 Q1009 NOSIG
Conditions at: WAAA (HASANUDDIN/UJUNG, ID) observed 0730 UTC 20 August 2019
Temperature: 32.0°C (90°F)
Dewpoint: 19.0°C (66°F) [RH = 46%]
Pressure (altimeter): 29.79 inches Hg (1009.0 mb)
Winds: from the E (80 degrees) at 12 MPH (10 knots; 5.1 m/s)
Visibility: 6 or more miles (10+ km)
Ceiling: at least 12,000 feet AGL
Clouds: scattered clouds at 1900 feet AGL
Weather: no significant weather observed at this time

METAR text: WAAA 200700Z 08012KT 050V110 9999 SCT019 32/19 Q1009 NOSIG
Conditions at: WAAA (HASANUDDIN/UJUNG, ID) observed 0700 UTC 20 August 2019
Temperature: 32.0°C (90°F)
Dewpoint: 19.0°C (66°F) [RH = 46%]
Pressure (altimeter): 29.79 inches Hg (1009.0 mb)
Winds: from the E (80 degrees) at 14 MPH (12 knots; 6.2 m/s)
Visibility: 6 or more miles (10+ km)
Ceiling: at least 12,000 feet AGL
Clouds: scattered clouds at 1900 feet AGL
Weather: no significant weather observed at this time

METAR text: WAAA 200630Z 08010KT 320V110 9999 SCT019 31/19 Q1010 NOSIG
Conditions at: WAAA (HASANUDDIN/UJUNG, ID) observed 0630 UTC 20 August 2019
Temperature: 31.0°C (88°F)
Dewpoint: 19.0°C (66°F) [RH = 49%]
Pressure (altimeter): 29.82 inches Hg (1010.0 mb)
Winds: from the E (80 degrees) at 12 MPH (10 knots; 5.1 m/s)
Visibility: 6 or more miles (10+ km)
Ceiling: at least 12,000 feet AGL
Clouds: scattered clouds at 1900 feet AGL
Weather: no significant weather observed at this time

METAR text: WAAA 200600Z 31005KT 270V360 9999 SCT019 30/22 Q1010 NOSIG
Conditions at: WAAA (HASANUDDIN/UJUNG, ID) observed 0600 UTC 20 August 2019
Temperature: 30.0°C (86°F)
Dewpoint: 22.0°C (72°F) [RH = 62%]
Pressure (altimeter): 29.82 inches Hg (1010.0 mb)
Winds: from the NW (310 degrees) at 6 MPH (5 knots; 2.6 m/s)
Visibility: 6 or more miles (10+ km)
Ceiling: at least 12,000 feet AGL
Clouds: scattered clouds at 1900 feet AGL
Weather: no significant weather observed at this time

METAR text: WAAA 200530Z 30007KT 9999 SCT019 30/21 Q1010 NOSIG
Conditions at: WAAA (HASANUDDIN/UJUNG, ID) observed 0530 UTC 20 August 2019
Temperature: 30.0°C (86°F)
Dewpoint: 21.0°C (70°F) [RH = 59%]
Pressure (altimeter): 29.82 inches Hg (1010.0 mb)
Winds: from the WNW (300 degrees) at 8 MPH (7 knots; 3.6 m/s)
Visibility: 6 or more miles (10+ km)
Ceiling: at least 12,000 feet AGL
Clouds: scattered clouds at 1900 feet AGL
Weather: no significant weather observed at this time

METAR text: WAAA 200500Z 29010KT 9999 FEW019 30/21 Q1011 NOSIG
Conditions at: WAAA (HASANUDDIN/UJUNG, ID) observed 0500 UTC 20 August 2019
Temperature: 30.0°C (86°F)
Dewpoint: 21.0°C (70°F) [RH = 59%]
Pressure (altimeter): 29.85 inches Hg (1011.0 mb)
Winds: from the WNW (290 degrees) at 12 MPH (10 knots; 5.1 m/s)
Visibility: 6 or more miles (10+ km)
Ceiling: at least 12,000 feet AGL
Clouds: few clouds at 1900 feet AGL
Weather: no significant weather observed at this time

METAR text: WAAA 200430Z 29011KT 9999 SCT019 30/21 Q1011 NOSIG
Conditions at: WAAA (HASANUDDIN/UJUNG, ID) observed 0430 UTC 20 August 2019
Temperature: 30.0°C (86°F)
Dewpoint: 21.0°C (70°F) [RH = 59%]
Pressure (altimeter): 29.85 inches Hg (1011.0 mb)
Winds: from the WNW (290 degrees) at 13 MPH (11 knots; 5.7 m/s)
Visibility: 6 or more miles (10+ km)
Ceiling: at least 12,000 feet AGL
Clouds: scattered clouds at 1900 feet AGL
Weather: no significant weather observed at this time

METAR text: WAAA 200400Z 29010KT 9999 FEW019 31/21 Q1011 NOSIG
Conditions at: WAAA (HASANUDDIN/UJUNG, ID) observed 0400 UTC 20 August 2019
Temperature: 31.0°C (88°F)
Dewpoint: 21.0°C (70°F) [RH = 55%]
Pressure (altimeter): 29.85 inches Hg (1011.0 mb)
Winds: from the WNW (290 degrees) at 12 MPH (10 knots; 5.1 m/s)
Visibility: 6 or more miles (10+ km)
Ceiling: at least 12,000 feet AGL
Clouds: few clouds at 1900 feet AGL
Weather: no significant weather observed at this time

METAR text: WAAA 200330Z 32009KT 290V360 9999 SCT019 31/21 Q1011 NOSIG
Conditions at: WAAA (HASANUDDIN/UJUNG, ID) observed 0330 UTC 20 August 2019
Temperature: 31.0°C (88°F)
Dewpoint: 21.0°C (70°F) [RH = 55%]
Pressure (altimeter): 29.85 inches Hg (1011.0 mb)
Winds: from the NW (320 degrees) at 10 MPH (9 knots; 4.6 m/s)
Visibility: 6 or more miles (10+ km)
Ceiling: at least 12,000 feet AGL
Clouds: scattered clouds at 1900 feet AGL
Weather: no significant weather observed at this time

METAR text: WAAA 200300Z 32007KT 280V350 9999 FEW020 32/21 Q1012 NOSIG
Conditions at: WAAA (HASANUDDIN/UJUNG, ID) observed 0300 UTC 20 August 2019
Temperature: 32.0°C (90°F)
Dewpoint: 21.0°C (70°F) [RH = 52%]
Pressure (altimeter): 29.88 inches Hg (1012.0 mb)
Winds: from the NW (320 degrees) at 8 MPH (7 knots; 3.6 m/s)
Visibility: 6 or more miles (10+ km)
Ceiling: at least 12,000 feet AGL
Clouds: few clouds at 2000 feet AGL
Weather: no significant weather observed at this time

METAR text: WAAA 200230Z 32005KT 250V040 9999 FEW020 32/20 Q1012 NOSIG
Conditions at: WAAA (HASANUDDIN/UJUNG, ID) observed 0230 UTC 20 August 2019
Temperature: 32.0°C (90°F)
Dewpoint: 20.0°C (68°F) [RH = 49%]
Pressure (altimeter): 29.88 inches Hg (1012.0 mb)
Winds: from the NW (320 degrees) at 6 MPH (5 knots; 2.6 m/s)
Visibility: 6 or more miles (10+ km)
Ceiling: at least 12,000 feet AGL
Clouds: few clouds at 2000 feet AGL
Weather: no significant weather observed at this time

METAR text: WAAA 200200Z 05003KT 340V140 9999 FEW020 31/20 Q1013 NOSIG
Conditions at: WAAA (HASANUDDIN/UJUNG, ID) observed 0200 UTC 20 August 2019
Temperature: 31.0°C (88°F)
Dewpoint: 20.0°C (68°F) [RH = 52%]
Pressure (altimeter): 29.91 inches Hg (1013.0 mb)
Winds: from the NE (50 degrees) at 3 MPH (3 knots; 1.5 m/s)
Visibility: 6 or more miles (10+ km)
Ceiling: at least 12,000 feet AGL
Clouds: few clouds at 2000 feet AGL
Weather: no significant weather observed at this time

METAR text: WAAA 200130Z 12003KT 030V180 9999 FEW020 30/21 Q1013 NOSIG
Conditions at: WAAA (HASANUDDIN/UJUNG, ID) observed 0130 UTC 20 August 2019
Temperature: 30.0°C (86°F)
Dewpoint: 21.0°C (70°F) [RH = 59%]
Pressure (altimeter): 29.91 inches Hg (1013.0 mb)
Winds: from the ESE (120 degrees) at 3 MPH (3 knots; 1.5 m/s)
Visibility: 6 or more miles (10+ km)
Ceiling: at least 12,000 feet AGL
Clouds: few clouds at 2000 feet AGL
Weather: no significant weather observed at this time

METAR text: WAAA 200100Z VRB02KT 9999 FEW020 29/23 Q1013 NOSIG
Conditions at: WAAA (HASANUDDIN/UJUNG, ID) observed 0100 UTC 20 August 2019
Temperature: 29.0°C (84°F)
Dewpoint: 23.0°C (73°F) [RH = 70%]
Pressure (altimeter): 29.91 inches Hg (1013.0 mb)
Winds: variable direction winds at 2 MPH (2 knots; 1.0 m/s)
Visibility: 6 or more miles (10+ km)
Ceiling: at least 12,000 feet AGL
Clouds: few clouds at 2000 feet AGL
Weather: no significant weather observed at this time

METAR text: WAAA 200030Z VRB02KT 9999 FEW020 27/23 Q1013 NOSIG
Conditions at: WAAA (HASANUDDIN/UJUNG, ID) observed 0030 UTC 20 August 2019
Temperature: 27.0°C (81°F)
Dewpoint: 23.0°C (73°F) [RH = 79%]
Pressure (altimeter): 29.91 inches Hg (1013.0 mb)
Winds: variable direction winds at 2 MPH (2 knots; 1.0 m/s)
Visibility: 6 or more miles (10+ km)
Ceiling: at least 12,000 feet AGL
Clouds: few clouds at 2000 feet AGL
Weather: no significant weather observed at this time

METAR text: WAAA 200000Z 22003KT 180V240 9999 FEW020 26/23 Q1013 NOSIG
Conditions at: WAAA (HASANUDDIN/UJUNG, ID) observed 0000 UTC 20 August 2019
Temperature: 26.0°C (79°F)
Dewpoint: 23.0°C (73°F) [RH = 84%]
Pressure (altimeter): 29.91 inches Hg (1013.0 mb)
Winds: from the SW (220 degrees) at 3 MPH (3 knots; 1.5 m/s)
Visibility: 6 or more miles (10+ km)
Ceiling: at least 12,000 feet AGL
Clouds: few clouds at 2000 feet AGL
Weather: no significant weather observed at this time

METAR text: WAAA 192330Z 20003KT 160V230 9999 FEW020 24/23 Q1013 NOSIG
Conditions at: WAAA (HASANUDDIN/UJUNG, ID) observed 2330 UTC 19 August 2019
Temperature: 24.0°C (75°F)
Dewpoint: 23.0°C (73°F) [RH = 94%]
Pressure (altimeter): 29.91 inches Hg (1013.0 mb)
Winds: from the SSW (200 degrees) at 3 MPH (3 knots; 1.5 m/s)
Visibility: 6 or more miles (10+ km)
Ceiling: at least 12,000 feet AGL
Clouds: few clouds at 2000 feet AGL
Weather: no significant weather observed at this time

METAR text: WAAA 192300Z 23003KT 8000 FEW019 23/23 Q1013 NOSIG
Conditions at: WAAA (HASANUDDIN/UJUNG, ID) observed 2300 UTC 19 August 2019
Temperature: 23.0°C (73°F)
Dewpoint: 23.0°C (73°F) [RH = 100%]
Pressure (altimeter): 29.91 inches Hg (1013.0 mb)
Winds: from the SW (230 degrees) at 3 MPH (3 knots; 1.5 m/s)
Visibility: 5 miles ( 8 km)
Ceiling: at least 12,000 feet AGL
Clouds: few clouds at 1900 feet AGL
Weather: no significant weather observed at this time

METAR text: WAAA 192230Z 23004KT 8000 FEW019 21/21 Q1013 NOSIG
Conditions at: WAAA (HASANUDDIN/UJUNG, ID) observed 2230 UTC 19 August 2019
Temperature: 21.0°C (70°F)
Dewpoint: 21.0°C (70°F) [RH = 100%]
Pressure (altimeter): 29.91 inches Hg (1013.0 mb)
Winds: from the SW (230 degrees) at 5 MPH (4 knots; 2.1 m/s)
Visibility: 5 miles ( 8 km)
Ceiling: at least 12,000 feet AGL
Clouds: few clouds at 1900 feet AGL
Weather: no significant weather observed at this time

METAR text: WAAA 192200Z 09002KT 7000 FEW019 22/22 Q1012 NOSIG
Conditions at: WAAA (HASANUDDIN/UJUNG, ID) observed 2200 UTC 19 August 2019
Temperature: 22.0°C (72°F)
Dewpoint: 22.0°C (72°F) [RH = 100%]
Pressure (altimeter): 29.88 inches Hg (1012.0 mb)
Winds: from the E (90 degrees) at 2 MPH (2 knots; 1.0 m/s)
Visibility: 4 miles ( 7 km)
Ceiling: at least 12,000 feet AGL
Clouds: few clouds at 1900 feet AGL
Weather: no significant weather observed at this time

METAR text: WAAA 192130Z AUTO 04004KT 9999 FEW260 22/22 Q1012
Conditions at: WAAA (HASANUDDIN/UJUNG, ID) observed 2130 UTC 19 August 2019
Temperature: 22.0°C (72°F)
Dewpoint: 22.0°C (72°F) [RH = 100%]
Pressure (altimeter): 29.88 inches Hg (1012.0 mb)
Winds: from the NE (40 degrees) at 5 MPH (4 knots; 2.1 m/s)
Visibility: 6 or more miles (10+ km)
Ceiling: at least 12,000 feet AGL
Clouds: few clouds at 26000 feet AGL
Weather: no significant weather observed at this time

METAR text: WAAA 192100Z AUTO 09001KT 8000 NCD 22/22 Q1012
Conditions at: WAAA (HASANUDDIN/UJUNG, ID) observed 2100 UTC 19 August 2019
Temperature: 22.0°C (72°F)
Dewpoint: 22.0°C (72°F) [RH = 100%]
Pressure (altimeter): 29.88 inches Hg (1012.0 mb)
Winds: from the E (90 degrees) at 1 MPH (1 knots; 0.5 m/s)
Visibility: 5 miles ( 8 km)
Ceiling: at least 12,000 feet AGL
Clouds: sky clear below 12,000 feet AGL
Weather: no significant weather observed at this time

METAR text: WAAA 192030Z AUTO 09003KT 060V120 6000 FEW050 SCT260 22/22 Q1012
Conditions at: WAAA (HASANUDDIN/UJUNG, ID) observed 2030 UTC 19 August 2019
Temperature: 22.0°C (72°F)
Dewpoint: 22.0°C (72°F) [RH = 100%]
Pressure (altimeter): 29.88 inches Hg (1012.0 mb)
Winds: from the E (90 degrees) at 3 MPH (3 knots; 1.5 m/s)
Visibility: 4 miles ( 6 km)
Ceiling: at least 12,000 feet AGL
Clouds: few clouds at 5000 feet AGL
scattered clouds at 26000 feet AGL
Weather: no significant weather observed at this time

METAR text: WAAA 192000Z AUTO 10001KT 8000 SCT260 22/23 Q1012
Conditions at: WAAA (HASANUDDIN/UJUNG, ID) observed 2000 UTC 19 August 2019
Temperature: 22.0°C (72°F)
Dewpoint: 23.0°C (73°F) [RH = 106%]
Pressure (altimeter): 29.88 inches Hg (1012.0 mb)
Winds: from the E (100 degrees) at 1 MPH (1 knots; 0.5 m/s)
Visibility: 5 miles ( 8 km)
Ceiling: at least 12,000 feet AGL
Clouds: scattered clouds at 26000 feet AGL
Weather: no significant weather observed at this time

METAR text: WAAA 191930Z AUTO VRB02KT 8000 FEW280 22/22 Q1011
Conditions at: WAAA (HASANUDDIN/UJUNG, ID) observed 1930 UTC 19 August 2019
Temperature: 22.0°C (72°F)
Dewpoint: 22.0°C (72°F) [RH = 100%]
Pressure (altimeter): 29.85 inches Hg (1011.0 mb)
Winds: variable direction winds at 2 MPH (2 knots; 1.0 m/s)
Visibility: 5 miles ( 8 km)
Ceiling: at least 12,000 feet AGL
Clouds: few clouds at 28000 feet AGL
Weather: no significant weather observed at this time

METAR text: WAAA 191900Z AUTO VRB02KT 9999 BKN280 23/23 Q1011
Conditions at: WAAA (HASANUDDIN/UJUNG, ID) observed 1900 UTC 19 August 2019
Temperature: 23.0°C (73°F)
Dewpoint: 23.0°C (73°F) [RH = 100%]
Pressure (altimeter): 29.85 inches Hg (1011.0 mb)
Winds: variable direction winds at 2 MPH (2 knots; 1.0 m/s)
Visibility: 6 or more miles (10+ km)
Ceiling: 28000 feet AGL
Clouds: broken clouds at 28000 feet AGL
Weather: no significant weather observed at this time

METAR text: WAAA 191830Z 22002KT 8000 FEW019 23/23 Q1011 NOSIG
Conditions at: WAAA (HASANUDDIN/UJUNG, ID) observed 1830 UTC 19 August 2019
Temperature: 23.0°C (73°F)
Dewpoint: 23.0°C (73°F) [RH = 100%]
Pressure (altimeter): 29.85 inches Hg (1011.0 mb)
Winds: from the SW (220 degrees) at 2 MPH (2 knots; 1.0 m/s)
Visibility: 5 miles ( 8 km)
Ceiling: at least 12,000 feet AGL
Clouds: few clouds at 1900 feet AGL
Weather: no significant weather observed at this time

METAR text: WAAA 191800Z VRB02KT 8000 FEW019 23/23 Q1012 NOSIG
Conditions at: WAAA (HASANUDDIN/UJUNG, ID) observed 1800 UTC 19 August 2019
Temperature: 23.0°C (73°F)
Dewpoint: 23.0°C (73°F) [RH = 100%]
Pressure (altimeter): 29.88 inches Hg (1012.0 mb)
Winds: variable direction winds at 2 MPH (2 knots; 1.0 m/s)
Visibility: 5 miles ( 8 km)
Ceiling: at least 12,000 feet AGL
Clouds: few clouds at 1900 feet AGL
Weather: no significant weather observed at this time

METAR text: WAAA 191730Z 19002KT 8000 FEW019 24/23 Q1012 NOSIG
Conditions at: WAAA (HASANUDDIN/UJUNG, ID) observed 1730 UTC 19 August 2019
Temperature: 24.0°C (75°F)
Dewpoint: 23.0°C (73°F) [RH = 94%]
Pressure (altimeter): 29.88 inches Hg (1012.0 mb)
Winds: from the S (190 degrees) at 2 MPH (2 knots; 1.0 m/s)
Visibility: 5 miles ( 8 km)
Ceiling: at least 12,000 feet AGL
Clouds: few clouds at 1900 feet AGL
Weather: no significant weather observed at this time

METAR text: WAAA 191700Z 19003KT 8000 FEW019 24/23 Q1012 NOSIG
Conditions at: WAAA (HASANUDDIN/UJUNG, ID) observed 1700 UTC 19 August 2019
Temperature: 24.0°C (75°F)
Dewpoint: 23.0°C (73°F) [RH = 94%]
Pressure (altimeter): 29.88 inches Hg (1012.0 mb)
Winds: from the S (190 degrees) at 3 MPH (3 knots; 1.5 m/s)
Visibility: 5 miles ( 8 km)
Ceiling: at least 12,000 feet AGL
Clouds: few clouds at 1900 feet AGL
Weather: no significant weather observed at this time

METAR text: WAAA 191630Z 15001KT 7000 FEW019 24/23 Q1012 NOSIG
Conditions at: WAAA (HASANUDDIN/UJUNG, ID) observed 1630 UTC 19 August 2019
Temperature: 24.0°C (75°F)
Dewpoint: 23.0°C (73°F) [RH = 94%]
Pressure (altimeter): 29.88 inches Hg (1012.0 mb)
Winds: from the SSE (150 degrees) at 1 MPH (1 knots; 0.5 m/s)
Visibility: 4 miles ( 7 km)
Ceiling: at least 12,000 feet AGL
Clouds: few clouds at 1900 feet AGL
Weather: no significant weather observed at this time

METAR text: WAAA 191600Z 30001KT 7000 FEW019 25/24 Q1012 NOSIG
Conditions at: WAAA (HASANUDDIN/UJUNG, ID) observed 1600 UTC 19 August 2019
Temperature: 25.0°C (77°F)
Dewpoint: 24.0°C (75°F) [RH = 94%]
Pressure (altimeter): 29.88 inches Hg (1012.0 mb)
Winds: from the WNW (300 degrees) at 1 MPH (1 knots; 0.5 m/s)
Visibility: 4 miles ( 7 km)
Ceiling: at least 12,000 feet AGL
Clouds: few clouds at 1900 feet AGL
Weather: no significant weather observed at this time

METAR text: WAAA 191530Z 10001KT 8000 FEW019 25/24 Q1012 NOSIG
Conditions at: WAAA (HASANUDDIN/UJUNG, ID) observed 1530 UTC 19 August 2019
Temperature: 25.0°C (77°F)
Dewpoint: 24.0°C (75°F) [RH = 94%]
Pressure (altimeter): 29.88 inches Hg (1012.0 mb)
Winds: from the E (100 degrees) at 1 MPH (1 knots; 0.5 m/s)
Visibility: 5 miles ( 8 km)
Ceiling: at least 12,000 feet AGL
Clouds: few clouds at 1900 feet AGL
Weather: no significant weather observed at this time

METAR text: WAAA 191500Z 23001KT 8000 FEW019 25/24 Q1012 NOSIG
Conditions at: WAAA (HASANUDDIN/UJUNG, ID) observed 1500 UTC 19 August 2019
Temperature: 25.0°C (77°F)
Dewpoint: 24.0°C (75°F) [RH = 94%]
Pressure (altimeter): 29.88 inches Hg (1012.0 mb)
Winds: from the SW (230 degrees) at 1 MPH (1 knots; 0.5 m/s)
Visibility: 5 miles ( 8 km)
Ceiling: at least 12,000 feet AGL
Clouds: few clouds at 1900 feet AGL
Weather: no significant weather observed at this time

METAR text: WAAA 191430Z VRB02KT 8000 FEW019 26/24 Q1012 NOSIG
Conditions at: WAAA (HASANUDDIN/UJUNG, ID) observed 1430 UTC 19 August 2019
Temperature: 26.0°C (79°F)
Dewpoint: 24.0°C (75°F) [RH = 89%]
Pressure (altimeter): 29.88 inches Hg (1012.0 mb)
Winds: variable direction winds at 2 MPH (2 knots; 1.0 m/s)
Visibility: 5 miles ( 8 km)
Ceiling: at least 12,000 feet AGL
Clouds: few clouds at 1900 feet AGL
Weather: no significant weather observed at this time

METAR text: WAAA 191400Z 12002KT 8000 FEW019 26/24 Q1013 NOSIG
Conditions at: WAAA (HASANUDDIN/UJUNG, ID) observed 1400 UTC 19 August 2019
Temperature: 26.0°C (79°F)
Dewpoint: 24.0°C (75°F) [RH = 89%]
Pressure (altimeter): 29.91 inches Hg (1013.0 mb)
Winds: from the ESE (120 degrees) at 2 MPH (2 knots; 1.0 m/s)
Visibility: 5 miles ( 8 km)
Ceiling: at least 12,000 feet AGL
Clouds: few clouds at 1900 feet AGL
Weather: no significant weather observed at this time

METAR text: WAAA 191330Z VRB02KT 8000 FEW019 26/24 Q1013 NOSIG
Conditions at: WAAA (HASANUDDIN/UJUNG, ID) observed 1330 UTC 19 August 2019
Temperature: 26.0°C (79°F)
Dewpoint: 24.0°C (75°F) [RH = 89%]
Pressure (altimeter): 29.91 inches Hg (1013.0 mb)
Winds: variable direction winds at 2 MPH (2 knots; 1.0 m/s)
Visibility: 5 miles ( 8 km)
Ceiling: at least 12,000 feet AGL
Clouds: few clouds at 1900 feet AGL
Weather: no significant weather observed at this time

METAR text: WAAA 191300Z VRB02KT 8000 FEW019 26/24 Q1012 NOSIG
Conditions at: WAAA (HASANUDDIN/UJUNG, ID) observed 1300 UTC 19 August 2019
Temperature: 26.0°C (79°F)
Dewpoint: 24.0°C (75°F) [RH = 89%]
Pressure (altimeter): 29.88 inches Hg (1012.0 mb)
Winds: variable direction winds at 2 MPH (2 knots; 1.0 m/s)
Visibility: 5 miles ( 8 km)
Ceiling: at least 12,000 feet AGL
Clouds: few clouds at 1900 feet AGL
Weather: no significant weather observed at this time

METAR text: WAAA 191230Z 14001KT 8000 FEW019 25/23 Q1012 NOSIG
Conditions at: WAAA (HASANUDDIN/UJUNG, ID) observed 1230 UTC 19 August 2019
Temperature: 25.0°C (77°F)
Dewpoint: 23.0°C (73°F) [RH = 89%]
Pressure (altimeter): 29.88 inches Hg (1012.0 mb)
Winds: from the SE (140 degrees) at 1 MPH (1 knots; 0.5 m/s)
Visibility: 5 miles ( 8 km)
Ceiling: at least 12,000 feet AGL
Clouds: few clouds at 1900 feet AGL
Weather: no significant weather observed at this time

METAR text: WAAA 191200Z VRB02KT 8000 FEW019 26/24 Q1012 NOSIG
Conditions at: WAAA (HASANUDDIN/UJUNG, ID) observed 1200 UTC 19 August 2019
Temperature: 26.0°C (79°F)
Dewpoint: 24.0°C (75°F) [RH = 89%]
Pressure (altimeter): 29.88 inches Hg (1012.0 mb)
Winds: variable direction winds at 2 MPH (2 knots; 1.0 m/s)
Visibility: 5 miles ( 8 km)
Ceiling: at least 12,000 feet AGL
Clouds: few clouds at 1900 feet AGL
Weather: no significant weather observed at this time

METAR text: WAAA 191130Z VRB02KT 8000 FEW019 26/24 Q1012 NOSIG
Conditions at: WAAA (HASANUDDIN/UJUNG, ID) observed 1130 UTC 19 August 2019
Temperature: 26.0°C (79°F)
Dewpoint: 24.0°C (75°F) [RH = 89%]
Pressure (altimeter): 29.88 inches Hg (1012.0 mb)
Winds: variable direction winds at 2 MPH (2 knots; 1.0 m/s)
Visibility: 5 miles ( 8 km)
Ceiling: at least 12,000 feet AGL
Clouds: few clouds at 1900 feet AGL
Weather: no significant weather observed at this time

METAR text: WAAA 191100Z VRB02KT 8000 FEW019 27/24 Q1011 NOSIG
Conditions at: WAAA (HASANUDDIN/UJUNG, ID) observed 1100 UTC 19 August 2019
Temperature: 27.0°C (81°F)
Dewpoint: 24.0°C (75°F) [RH = 84%]
Pressure (altimeter): 29.85 inches Hg (1011.0 mb)
Winds: variable direction winds at 2 MPH (2 knots; 1.0 m/s)
Visibility: 5 miles ( 8 km)
Ceiling: at least 12,000 feet AGL
Clouds: few clouds at 1900 feet AGL
Weather: no significant weather observed at this time

METAR text: WAAA 191030Z 01005KT 340V040 8000 FEW019 28/24 Q1011 NOSIG
Conditions at: WAAA (HASANUDDIN/UJUNG, ID) observed 1030 UTC 19 August 2019
Temperature: 28.0°C (82°F)
Dewpoint: 24.0°C (75°F) [RH = 79%]
Pressure (altimeter): 29.85 inches Hg (1011.0 mb)
Winds: from the N (10 degrees) at 6 MPH (5 knots; 2.6 m/s)
Visibility: 5 miles ( 8 km)
Ceiling: at least 12,000 feet AGL
Clouds: few clouds at 1900 feet AGL
Weather: no significant weather observed at this time

METAR text: WAAA 191000Z 02006KT 9000 SCT019 27/24 Q1010 NOSIG
Conditions at: WAAA (HASANUDDIN/UJUNG, ID) observed 1000 UTC 19 August 2019
Temperature: 27.0°C (81°F)
Dewpoint: 24.0°C (75°F) [RH = 84%]
Pressure (altimeter): 29.82 inches Hg (1010.0 mb)
Winds: from the NNE (20 degrees) at 7 MPH (6 knots; 3.1 m/s)
Visibility: 6 miles ( 9 km)
Ceiling: at least 12,000 feet AGL
Clouds: scattered clouds at 1900 feet AGL
Weather: no significant weather observed at this time

METAR text: WAAA 190930Z 35007KT 9000 SCT019 27/24 Q1010 NOSIG
Conditions at: WAAA (HASANUDDIN/UJUNG, ID) observed 0930 UTC 19 August 2019
Temperature: 27.0°C (81°F)
Dewpoint: 24.0°C (75°F) [RH = 84%]
Pressure (altimeter): 29.82 inches Hg (1010.0 mb)
Winds: from the N (350 degrees) at 8 MPH (7 knots; 3.6 m/s)
Visibility: 6 miles ( 9 km)
Ceiling: at least 12,000 feet AGL
Clouds: scattered clouds at 1900 feet AGL
Weather: no significant weather observed at this time

METAR text: WAAA 190900Z 35008KT 320V020 9999 SCT019 27/24 Q1009 NOSIG
Conditions at: WAAA (HASANUDDIN/UJUNG, ID) observed 0900 UTC 19 August 2019
Temperature: 27.0°C (81°F)
Dewpoint: 24.0°C (75°F) [RH = 84%]
Pressure (altimeter): 29.79 inches Hg (1009.0 mb)
Winds: from the N (350 degrees) at 9 MPH (8 knots; 4.1 m/s)
Visibility: 6 or more miles (10+ km)
Ceiling: at least 12,000 feet AGL
Clouds: scattered clouds at 1900 feet AGL
Weather: no significant weather observed at this time

Forecast for: WAAA (HASANUDDIN/UJUNG, ID)
Text: TAF WAAA 201700Z 2018/2200 10004KT 8000 FEW020
Forecast period: 1800 to 2000 UTC 20 August 2019
Forecast type: FROM: standard forecast or significant change
Winds: from the E (100 degrees) at 5 MPH (4 knots; 2.1 m/s)
Visibility: 5 miles (8 km)
Ceiling: at least 12,000 feet AGL
Clouds: few clouds at 2000 feet AGL
Weather: no significant weather forecast for this period
Text: BECMG 2020/2022 9999
Forecast period: 2000 UTC 20 August 2019 to 0300 UTC 21 August 2019
Forecast type: BECOMING: Conditions expected to become as follows by 2200 UTC 20 August 2019
Winds: from the E (100 degrees) at 5 MPH (4 knots; 2.1 m/s)
Visibility: 6 or more miles 10+ km)
Ceiling: at least 12,000 feet AGL
Clouds: few clouds at 2000 feet AGL
Weather: no significant weather forecast for this period
Text: BECMG 2103/2105 30010KT
Forecast period: 0300 to 1100 UTC 21 August 2019
Forecast type: BECOMING: Conditions expected to become as follows by 0500 UTC 21 August 2019
Winds: from the WNW (300 degrees) at 12 MPH (10 knots; 5.1 m/s)
Visibility: 6 or more miles 10+ km)
Ceiling: at least 12,000 feet AGL
Clouds: few clouds at 2000 feet AGL
Weather: no significant weather forecast for this period
Text: BECMG 2111/2113 12004KT 8000
Forecast period: 1100 UTC 21 August 2019 to 0000 UTC 22 August 2019
Forecast type: BECOMING: Conditions expected to become as follows by 1300 UTC 21 August 2019
Winds: from the ESE (120 degrees) at 5 MPH (4 knots; 2.1 m/s)
Visibility: 5 miles (8 km)
Ceiling: at least 12,000 feet AGL
Clouds: few clouds at 2000 feet AGL
Weather: no significant weather forecast for this period